createdAt,value
2018-12-04T00:00:18.944Z,7.33
2018-12-04T00:03:49.069Z,7.36
2018-12-04T00:07:19.212Z,7.3
2018-12-04T00:10:49.264Z,7.38
2018-12-04T00:14:19.320Z,7.47
2018-12-04T00:17:49.363Z,7.56
2018-12-04T00:21:19.418Z,7.49
2018-12-04T00:24:49.441Z,7.4
2018-12-04T00:28:19.495Z,7.38
2018-12-04T00:31:49.600Z,7.33
2018-12-04T00:35:19.593Z,7.3
2018-12-04T00:38:49.677Z,7.27
2018-12-04T00:42:19.670Z,7.22
2018-12-04T00:45:49.934Z,7.3
2018-12-04T00:49:19.968Z,7.31
2018-12-04T00:52:49.972Z,7.26
2018-12-04T00:56:20.026Z,7.22
2018-12-04T00:59:50.080Z,7.19
2018-12-04T01:03:20.134Z,7.14
2018-12-04T01:06:50.258Z,7.2
2018-12-04T01:10:20.401Z,7.17
2018-12-04T01:13:50.547Z,7.3
2018-12-04T01:17:20.620Z,7.29
2018-12-04T01:20:50.744Z,7.3
2018-12-04T01:24:20.821Z,7.41
2018-12-04T01:27:50.982Z,7.45
2018-12-04T01:31:21.065Z,7.49
2018-12-04T01:34:51.199Z,7.5
2018-12-04T01:38:21.223Z,7.59
2018-12-04T01:41:51.237Z,7.77
2018-12-04T01:45:21.241Z,7.83
2018-12-04T01:48:51.566Z,7.91
2018-12-04T01:52:21.519Z,7.98
2018-12-04T01:55:51.602Z,7.99
2018-12-04T01:59:21.747Z,8.08
2018-12-04T02:00:12.396Z,8.11
2018-12-04T02:03:42.634Z,8.1
2018-12-04T02:07:12.783Z,8.11
2018-12-04T02:10:42.880Z,8.19
2018-12-04T02:14:12.971Z,8.32
2018-12-04T02:17:43.125Z,8.41
2018-12-04T02:21:13.159Z,8.46
2018-12-04T02:24:43.293Z,8.51
2018-12-04T02:28:13.397Z,8.52
2018-12-04T02:31:43.506Z,8.54
2018-12-04T02:35:13.576Z,8.62
2018-12-04T02:38:43.759Z,8.61
2018-12-04T02:42:24.907Z,8.66
2018-12-04T02:45:55.089Z,8.69
2018-12-04T02:49:25.381Z,8.89
2018-12-04T02:52:55.515Z,8.98
2018-12-04T02:56:25.599Z,8.97
2018-12-04T02:59:55.984Z,8.81
2018-12-04T03:03:26.019Z,8.7
2018-12-04T03:06:56.181Z,8.8
2018-12-04T03:10:26.331Z,8.88
2018-12-04T03:13:56.449Z,8.91
2018-12-04T03:17:26.553Z,8.98
2018-12-04T03:20:56.625Z,8.88
2018-12-04T03:24:26.732Z,8.89
2018-12-04T03:27:56.805Z,8.88
2018-12-04T03:31:26.878Z,8.98
2018-12-04T03:34:56.994Z,9.08
2018-12-04T03:38:27.138Z,9.21
2018-12-04T03:41:57.371Z,9.3
2018-12-04T03:45:27.407Z,9.3
2018-12-04T03:48:57.436Z,9.33
2018-12-04T03:52:27.854Z,9.37
2018-12-04T03:55:57.939Z,9.42
2018-12-04T03:59:27.933Z,9.41
2018-12-04T04:00:12.252Z,9.42
2018-12-04T04:03:42.285Z,9.4
2018-12-04T04:07:12.470Z,9.42
2018-12-04T04:10:42.673Z,9.37
2018-12-04T04:14:12.708Z,9.32
2018-12-04T04:17:42.821Z,9.38
2018-12-04T04:21:12.795Z,9.38
2018-12-04T04:24:42.950Z,9.43
2018-12-04T04:28:13.029Z,9.53
2018-12-04T04:31:43.259Z,9.51
2018-12-04T04:35:13.367Z,9.42
2018-12-04T04:38:43.548Z,9.45
2018-12-04T04:42:13.672Z,9.48
2018-12-04T04:45:43.854Z,9.47
2018-12-04T04:49:13.959Z,9.55
2018-12-04T04:52:44.225Z,9.38
2018-12-04T04:56:14.290Z,9.38
2018-12-04T04:59:44.428Z,9.48
2018-12-04T05:03:14.504Z,9.51
2018-12-04T05:06:44.559Z,9.44
2018-12-04T05:10:14.603Z,9.36
2018-12-04T05:13:44.702Z,9.36
2018-12-04T05:17:14.803Z,9.17
2018-12-04T05:20:44.895Z,9.05
2018-12-04T05:24:14.972Z,9.04
2018-12-04T05:27:44.993Z,8.85
2018-12-04T05:31:15.097Z,8.6
2018-12-04T05:34:45.201Z,8.24
2018-12-04T05:38:15.235Z,8.24
2018-12-04T05:41:45.390Z,8.06
2018-12-04T05:45:15.403Z,8.14
2018-12-04T05:48:45.557Z,8.13
2018-12-04T05:52:15.551Z,8.12
2018-12-04T05:55:45.816Z,8.17
2018-12-04T05:59:15.849Z,8.3
2018-12-04T06:00:12.771Z,8.36
2018-12-04T06:03:42.931Z,8.51
2018-12-04T06:07:13.066Z,8.83
2018-12-04T06:10:43.068Z,9.01
2018-12-04T06:14:13.135Z,9.15
2018-12-04T06:17:43.277Z,9.33
2018-12-04T06:21:13.311Z,9.5
2018-12-04T06:24:43.404Z,9.72
2018-12-04T06:28:13.468Z,9.8
2018-12-04T06:31:43.542Z,9.81
2018-12-04T06:35:13.566Z,9.82
2018-12-04T06:38:43.711Z,9.98
2018-12-04T06:42:13.614Z,10.07
2018-12-04T06:45:43.769Z,10.16
2018-12-04T06:49:13.783Z,10.16
2018-12-04T06:52:43.847Z,10.19
2018-12-04T06:56:14.051Z,10.25
2018-12-04T06:59:44.205Z,10.38
2018-12-04T07:03:14.254Z,10.33
2018-12-04T07:06:44.245Z,10.52
2018-12-04T07:10:14.378Z,10.61
2018-12-04T07:13:44.425Z,10.69
2018-12-04T07:17:14.491Z,10.63
2018-12-04T07:20:44.561Z,10.46
2018-12-04T07:24:14.534Z,10.27
2018-12-04T07:27:44.618Z,10.06
2018-12-04T07:31:14.625Z,9.81
2018-12-04T07:34:44.616Z,9.96
2018-12-04T07:38:14.639Z,10.12
2018-12-04T07:41:44.685Z,10.37
2018-12-04T07:45:14.712Z,10.46
2018-12-04T07:48:19.341Z,10.25
2018-12-04T07:51:49.352Z,10.5
2018-12-04T07:55:19.436Z,10.39
2018-12-04T07:58:49.596Z,10.35
2018-12-04T08:00:16.228Z,10.27
2018-12-04T08:03:29.337Z,10.18
2018-12-04T08:06:59.350Z,10.21
2018-12-04T08:10:29.444Z,10.13
2018-12-04T08:13:59.437Z,10.04
2018-12-04T08:17:29.651Z,10.11
2018-12-04T08:20:59.705Z,10.23
2018-12-04T08:24:29.750Z,10.28
2018-12-04T08:27:59.844Z,10.12
2018-12-04T08:31:29.908Z,10.02
2018-12-04T08:34:59.972Z,10.03
2018-12-04T08:38:30.036Z,10.12
2018-12-04T08:42:00.069Z,10.11
2018-12-04T08:45:30.151Z,10.13
2018-12-04T08:49:00.158Z,10.26
2018-12-04T08:52:30.342Z,10.34
2018-12-04T08:56:00.396Z,10.41
2018-12-04T08:59:30.700Z,10.41
2018-12-04T09:03:01.666Z,10.37
2018-12-04T09:06:38.939Z,10.41
2018-12-04T09:10:09.043Z,10.44
2018-12-04T09:13:39.153Z,10.47
2018-12-04T09:17:09.194Z,10.65
2018-12-04T09:20:39.434Z,10.59
2018-12-04T09:24:09.602Z,10.82
2018-12-04T09:27:39.845Z,10.96
2018-12-04T09:31:09.928Z,10.95
2018-12-04T09:34:40.101Z,10.61
2018-12-04T09:38:10.136Z,10.46
2018-12-04T09:41:40.180Z,10.49
2018-12-04T09:45:10.271Z,10.6
2018-12-04T09:48:40.357Z,10.79
2018-12-04T09:52:10.471Z,10.97
2018-12-04T09:55:40.655Z,11.15
2018-12-04T09:59:10.754Z,11.25
2018-12-04T10:00:15.897Z,11.29
2018-12-04T10:03:46.072Z,11.35
2018-12-04T10:07:16.115Z,11.41
2018-12-04T10:10:46.321Z,11.48
2018-12-04T10:14:16.514Z,11.42
2018-12-04T10:17:46.559Z,11.53
2018-12-04T10:21:16.632Z,11.59
2018-12-04T10:24:46.786Z,11.65
2018-12-04T10:28:17.695Z,11.56
2018-12-04T10:31:47.905Z,11.44
2018-12-04T10:35:18.739Z,11.38
2018-12-04T10:38:49.096Z,11.28
2018-12-04T10:42:19.152Z,11.17
2018-12-04T10:45:49.221Z,11.19
2018-12-04T10:49:19.450Z,11.3
2018-12-04T10:52:49.539Z,11.33
2018-12-04T10:56:19.734Z,11.28
2018-12-04T10:59:49.878Z,11.27
2018-12-04T11:03:37.741Z,11.25
2018-12-04T11:07:07.815Z,11.33
2018-12-04T11:10:37.920Z,11.32
2018-12-04T11:14:08.134Z,11.24
2018-12-04T11:17:38.151Z,11.23
2018-12-04T11:32:11.527Z,12.07
2018-12-04T11:35:02.324Z,12.22
2018-12-04T11:38:32.442Z,12.18
2018-12-04T11:42:02.473Z,11.9
2018-12-04T11:45:32.591Z,11.79
2018-12-04T11:49:02.824Z,11.8
2018-12-04T11:52:32.915Z,11.83
2018-12-04T11:56:03.064Z,11.82
2018-12-04T11:59:33.205Z,11.93
2018-12-04T12:00:23.633Z,11.94
2018-12-04T12:03:54.063Z,12.08
2018-12-04T12:07:24.116Z,12.17
2018-12-04T12:10:54.025Z,12.14
2018-12-04T12:14:24.162Z,11.9
2018-12-04T12:17:54.099Z,11.73
2018-12-04T12:21:24.130Z,11.56
2018-12-04T12:24:54.150Z,11.4
2018-12-04T12:28:24.377Z,11.3
2018-12-04T12:31:54.378Z,11.11
2018-12-04T12:35:24.409Z,11.03
2018-12-04T12:38:54.506Z,10.96
2018-12-04T12:42:24.611Z,10.9
2018-12-04T12:45:54.695Z,10.84
2018-12-04T12:49:25.071Z,10.69
2018-12-04T12:52:55.156Z,10.52
2018-12-04T12:56:25.335Z,10.5
2018-12-04T12:59:55.402Z,10.27
2018-12-04T13:03:25.606Z,10.24
2018-12-04T13:06:55.780Z,10.06
2018-12-04T13:10:25.853Z,9.9
2018-12-04T13:13:56.005Z,9.94
2018-12-04T13:17:26.147Z,9.94
2018-12-04T13:20:56.161Z,9.95
2018-12-04T13:24:26.227Z,9.92
2018-12-04T13:27:56.274Z,10.02
2018-12-04T13:31:26.339Z,10.08
2018-12-04T13:34:56.411Z,10.08
2018-12-04T13:38:26.579Z,10.18
2018-12-04T13:41:56.736Z,10.07
2018-12-04T13:45:26.862Z,9.87
2018-12-04T13:48:56.904Z,9.79
2018-12-04T13:52:26.988Z,9.94
2018-12-04T13:55:57.009Z,10.03
2018-12-04T13:59:27.130Z,10.08
2018-12-04T14:00:16.395Z,10.09
2018-12-04T14:03:46.376Z,10.11
2018-12-04T14:07:16.747Z,10.12
2018-12-04T14:10:46.811Z,10.24
2018-12-04T14:14:16.874Z,10.27
2018-12-04T14:17:47.012Z,10.3
2018-12-04T14:21:17.121Z,10.27
2018-12-04T14:24:47.200Z,10.31
2018-12-04T14:28:17.224Z,10.37
2018-12-04T14:31:47.275Z,10.31
2018-12-04T14:35:17.318Z,10.3
2018-12-04T14:38:47.403Z,10.27
2018-12-04T14:42:17.597Z,10.09
2018-12-04T14:45:47.695Z,10.22
2018-12-04T14:49:17.857Z,10.29
2018-12-04T14:52:47.911Z,10.18
2018-12-04T14:56:18.114Z,10.13
2018-12-04T14:59:48.133Z,9.98
2018-12-04T15:03:18.267Z,9.83
2018-12-04T15:06:48.431Z,9.92
2018-12-04T15:10:18.674Z,10
2018-12-04T15:13:48.817Z,10.16
2018-12-04T15:17:18.998Z,10.18
2018-12-04T15:20:49.063Z,10.16
2018-12-04T15:24:19.173Z,10.21
2018-12-04T15:27:49.187Z,10.29
2018-12-04T15:31:19.270Z,10.28
2018-12-04T15:34:49.411Z,10.14
2018-12-04T15:38:19.458Z,10.19
2018-12-04T15:41:49.518Z,10.2
2018-12-04T15:45:19.549Z,10.25
2018-12-04T15:48:49.626Z,10.18
2018-12-04T15:52:19.734Z,10.21
2018-12-04T15:55:49.706Z,10.27
2018-12-04T15:59:19.829Z,10.24
2018-12-04T16:00:16.237Z,10.17
2018-12-04T16:03:46.330Z,10.05
2018-12-04T16:07:16.475Z,9.96
2018-12-04T16:10:46.785Z,9.93
2018-12-04T16:14:16.847Z,9.92
2018-12-04T16:17:46.870Z,9.89
2018-12-04T16:21:17.052Z,9.85
2018-12-04T16:24:47.107Z,9.85
2018-12-04T16:28:17.207Z,9.86
2018-12-04T16:31:47.406Z,9.83
2018-12-04T16:35:17.571Z,9.8
2018-12-04T16:38:47.654Z,9.79
2018-12-04T16:42:17.677Z,9.89
2018-12-04T16:45:47.789Z,9.98
2018-12-04T16:49:17.932Z,10.02
2018-12-04T16:52:47.889Z,10.03
2018-12-04T16:56:17.997Z,9.94
2018-12-04T16:59:48.049Z,9.92
2018-12-04T17:03:18.152Z,9.89
2018-12-04T17:06:48.164Z,9.88
2018-12-04T17:10:22.378Z,9.84
2018-12-04T17:13:53.001Z,9.73
2018-12-04T17:17:23.082Z,9.69
2018-12-04T17:20:53.134Z,9.66
2018-12-04T17:24:23.255Z,9.66
2018-12-04T17:27:53.294Z,9.55
2018-12-04T17:31:23.301Z,9.54
2018-12-04T17:34:53.433Z,9.51
2018-12-04T17:38:23.736Z,9.51
2018-12-04T17:41:53.895Z,9.48
2018-12-04T17:45:23.921Z,9.49
2018-12-04T17:48:54.104Z,9.43
2018-12-04T17:52:24.207Z,9.41
2018-12-04T17:55:54.268Z,9.36
2018-12-04T17:59:24.431Z,9.35
2018-12-04T18:00:16.089Z,9.31
2018-12-04T18:03:46.101Z,9.33
2018-12-04T18:07:16.417Z,9.31
2018-12-04T18:10:46.496Z,9.31
2018-12-04T18:14:16.749Z,9.31
2018-12-04T18:17:46.822Z,9.21
2018-12-04T18:21:16.963Z,9.13
2018-12-04T18:24:47.366Z,9.17
2018-12-04T18:28:17.468Z,9.12
2018-12-04T18:31:47.500Z,9.06
2018-12-04T18:35:17.586Z,9.1
2018-12-04T18:38:47.646Z,9.08
2018-12-04T18:42:17.729Z,9.13
2018-12-04T18:45:47.734Z,9.1
2018-12-04T18:49:17.872Z,9.16
2018-12-04T18:52:47.915Z,9.16
2018-12-04T18:56:18.118Z,9.11
2018-12-04T18:59:48.220Z,9.12
2018-12-04T19:03:18.413Z,9.09
2018-12-04T19:06:48.565Z,9.11
2018-12-04T19:10:18.657Z,9.09
2018-12-04T19:14:04.009Z,9.05
2018-12-04T19:17:34.432Z,9.08
2018-12-04T19:21:04.504Z,9.09
2018-12-04T19:24:34.603Z,9.1
2018-12-04T19:28:04.659Z,9.1
2018-12-04T19:31:34.731Z,9.13
2018-12-04T19:35:05.915Z,9.13
2018-12-04T19:38:36.175Z,9.17
2018-12-04T19:42:06.209Z,9.15
2018-12-04T19:45:36.251Z,9.11
2018-12-04T19:49:06.323Z,9.11
2018-12-04T19:52:36.578Z,8.99
2018-12-04T19:56:06.584Z,8.88
2018-12-04T19:59:36.580Z,8.84
2018-12-04T20:00:16.048Z,8.84
2018-12-04T20:03:46.171Z,8.79
2018-12-04T20:07:16.163Z,8.74
2018-12-04T20:10:46.277Z,8.71
2018-12-04T20:14:16.552Z,8.71
2018-12-04T20:17:46.762Z,8.64
2018-12-04T20:21:17.103Z,8.59
2018-12-04T20:24:47.206Z,8.6
2018-12-04T20:28:17.268Z,8.54
2018-12-04T20:31:47.390Z,8.55
2018-12-04T20:35:17.656Z,8.54
2018-12-04T20:38:47.755Z,8.57
2018-12-04T20:42:23.187Z,8.51
2018-12-04T20:45:53.639Z,8.51
2018-12-04T20:49:23.632Z,8.53
2018-12-04T20:52:53.694Z,8.53
2018-12-04T20:56:23.837Z,8.59
2018-12-04T20:59:53.929Z,8.58
2018-12-04T21:03:24.051Z,8.57
2018-12-04T21:06:54.064Z,8.58
2018-12-04T21:10:24.286Z,8.62
2018-12-04T21:13:54.405Z,8.59
2018-12-04T21:17:24.558Z,8.58
2018-12-04T21:20:54.765Z,8.6
2018-12-04T21:24:24.886Z,8.66
2018-12-04T21:28:27.256Z,8.71
2018-12-04T21:48:11.285Z,8.68
2018-12-04T21:51:41.346Z,8.67
2018-12-04T21:55:11.579Z,8.66
2018-12-04T21:58:41.679Z,8.62
2018-12-04T22:00:16.086Z,8.59
2018-12-04T22:03:46.103Z,8.62
2018-12-04T22:07:16.322Z,8.62
2018-12-04T22:10:46.345Z,8.6
2018-12-04T22:14:16.447Z,8.54
2018-12-04T22:17:46.520Z,8.52
2018-12-04T22:21:16.822Z,8.49
2018-12-04T22:24:46.924Z,8.48
2018-12-04T22:28:17.017Z,8.47
2018-12-04T22:31:47.059Z,8.44
2018-12-04T22:35:17.204Z,8.4
2018-12-04T22:38:47.244Z,8.37
2018-12-04T22:42:17.365Z,8.24
2018-12-04T22:45:47.369Z,8.29
2018-12-04T22:49:17.441Z,8.29
2018-12-04T22:52:47.616Z,8.24
2018-12-04T22:56:17.796Z,8.26
2018-12-04T22:59:47.829Z,8.26
2018-12-04T23:03:17.961Z,8.26
2018-12-04T23:06:48.022Z,8.25
2018-12-04T23:10:18.106Z,8.22
2018-12-04T23:13:48.108Z,8.22
2018-12-04T23:17:18.350Z,8.2
2018-12-04T23:20:48.262Z,8.16
2018-12-04T23:24:18.397Z,8.21
2018-12-04T23:27:48.363Z,8.12
2018-12-04T23:31:18.580Z,8.18
2018-12-04T23:34:48.634Z,8.23
2018-12-04T23:38:18.734Z,8.18
2018-12-04T23:41:48.796Z,8.15
2018-12-04T23:45:18.889Z,8.2
2018-12-04T23:48:48.951Z,8.18
2018-12-04T23:52:19.069Z,8.18
2018-12-04T23:55:49.067Z,8.18
2018-12-04T23:59:19.160Z,8.2
